createdAt,value
2018-07-03T00:01:00.969Z,78.60
2018-07-03T00:03:28.476Z,78.50
2018-07-03T00:08:23.876Z,79.20
2018-07-03T00:10:52.031Z,78.30
2018-07-03T00:13:19.960Z,78.20
2018-07-03T00:15:47.842Z,78.50
2018-07-03T00:18:15.503Z,78.90
2018-07-03T00:20:43.463Z,79.60
2018-07-03T00:23:10.957Z,79.00
2018-07-03T00:25:38.575Z,79.90
2018-07-03T00:28:06.876Z,82.20
2018-07-03T00:35:31.264Z,81.40
2018-07-03T00:37:59.495Z,83.20
2018-07-03T00:40:27.039Z,81.40
2018-07-03T00:42:54.627Z,81.40
2018-07-03T00:45:22.597Z,82.50
2018-07-03T00:50:18.816Z,81.40
2018-07-03T00:52:46.335Z,81.70
2018-07-03T00:55:14.212Z,81.50
2018-07-03T00:57:41.743Z,81.10
2018-07-03T01:00:21.548Z,81.20
2018-07-03T01:02:49.116Z,80.70
2018-07-03T01:05:16.731Z,81.10
2018-07-03T01:07:44.277Z,83.20
2018-07-03T01:10:12.396Z,82.20
2018-07-03T01:12:40.461Z,82.80
2018-07-03T01:15:08.367Z,81.70
2018-07-03T01:17:36.492Z,82.60
2018-07-03T01:22:32.133Z,83.50
2018-07-03T01:24:59.748Z,83.50
2018-07-03T01:27:27.275Z,83.10
2018-07-03T01:29:55.343Z,86.10
2018-07-03T01:32:22.884Z,86.50
2018-07-03T01:34:51.291Z,85.30
2018-07-03T01:37:19.282Z,84.80
2018-07-03T01:39:47.134Z,82.60
2018-07-03T01:42:14.999Z,84.20
2018-07-03T01:44:43.040Z,84.10
2018-07-03T01:47:11.157Z,87.60
2018-07-03T01:49:38.679Z,86.10
2018-07-03T01:52:06.305Z,84.20
2018-07-03T01:54:33.935Z,84.80
2018-07-03T01:57:01.486Z,84.70
2018-07-03T01:59:29.126Z,85.50
2018-07-03T02:01:57.060Z,84.60
2018-07-03T02:04:24.583Z,84.10
2018-07-03T02:06:52.101Z,84.80
2018-07-03T02:09:20.607Z,82.60
2018-07-03T02:11:48.115Z,83.10
2018-07-03T02:14:16.198Z,85.40
2018-07-03T02:16:43.863Z,87.50
2018-07-03T02:20:40.946Z,89.10
2018-07-03T02:23:08.491Z,87.50
2018-07-03T02:25:36.959Z,89.00
2018-07-03T02:28:06.138Z,87.00
2018-07-03T02:30:34.031Z,86.50
2018-07-03T02:33:01.535Z,85.60
2018-07-03T02:35:29.055Z,87.00
2018-07-03T02:37:57.512Z,88.80
2018-07-03T02:40:26.003Z,86.70
2018-07-03T02:42:53.548Z,86.40
2018-07-03T02:45:21.949Z,87.40
2018-07-03T02:47:49.945Z,88.10
2018-07-03T02:50:17.471Z,88.80
2018-07-03T02:52:44.973Z,87.20
2018-07-03T02:55:12.540Z,86.90
2018-07-03T02:57:40.072Z,85.70
2018-07-03T03:00:08.249Z,86.20
2018-07-03T03:02:35.863Z,88.50
2018-07-03T03:05:04.034Z,88.10
2018-07-03T03:07:32.008Z,86.40
2018-07-03T03:09:59.538Z,85.90
2018-07-03T03:12:27.704Z,85.80
2018-07-03T03:17:23.082Z,84.80
2018-07-03T03:19:50.600Z,86.30
2018-07-03T03:22:18.258Z,86.10
2018-07-03T03:24:45.775Z,86.60
2018-07-03T03:27:13.380Z,86.70
2018-07-03T03:29:41.406Z,87.30
2018-07-03T03:32:09.037Z,86.70
2018-07-03T03:34:36.572Z,89.40
2018-07-03T03:37:04.892Z,88.60
2018-07-03T03:39:33.068Z,86.90
2018-07-03T03:42:00.593Z,89.80
2018-07-03T03:44:28.989Z,87.90
2018-07-03T03:46:57.916Z,86.80
2018-07-03T03:49:25.435Z,86.60
2018-07-03T03:51:53.758Z,86.90
2018-07-03T03:54:21.336Z,87.80
2018-07-03T03:56:49.540Z,89.90
2018-07-03T03:59:17.135Z,89.10
2018-07-03T04:01:45.340Z,88.30
2018-07-03T04:04:13.157Z,87.60
2018-07-03T04:06:41.279Z,86.90
2018-07-03T04:09:10.629Z,86.80
2018-07-03T04:11:38.137Z,86.30
2018-07-03T04:14:06.518Z,86.40
2018-07-03T04:16:34.992Z,86.20
2018-07-03T04:19:02.649Z,86.60
2018-07-03T04:21:30.269Z,86.00
2018-07-03T04:23:57.822Z,87.00
2018-07-03T04:26:25.791Z,86.00
2018-07-03T04:28:53.898Z,85.70
2018-07-03T04:31:22.568Z,85.50
2018-07-03T04:33:50.127Z,85.20
2018-07-03T04:36:18.916Z,85.40
2018-07-03T04:38:46.901Z,85.40
2018-07-03T04:41:14.440Z,85.30
2018-07-03T04:43:42.662Z,85.30
2018-07-03T04:46:10.516Z,85.00
2018-07-03T04:48:38.548Z,84.30
2018-07-03T04:51:06.643Z,83.90
2018-07-03T04:53:34.700Z,83.70
2018-07-03T04:56:02.572Z,84.00
2018-07-03T04:58:30.535Z,83.80
2018-07-03T05:00:58.452Z,83.80
2018-07-03T05:03:26.089Z,83.90
2018-07-03T05:05:53.960Z,83.50
2018-07-03T05:08:22.525Z,84.50
2018-07-03T05:10:51.127Z,83.70
2018-07-03T05:13:19.014Z,83.50
2018-07-03T05:15:46.525Z,83.40
2018-07-03T05:18:14.044Z,83.80
2018-07-03T05:20:41.607Z,83.50
2018-07-03T05:23:09.276Z,83.50
2018-07-03T05:25:36.880Z,83.20
2018-07-03T05:28:04.789Z,82.50
2018-07-03T05:30:32.305Z,81.90
2018-07-03T05:35:27.685Z,81.10
2018-07-03T05:37:55.781Z,80.10
2018-07-03T05:40:23.920Z,80.70
2018-07-03T05:42:51.714Z,80.30
2018-07-03T05:45:20.068Z,79.60
2018-07-03T05:47:48.037Z,79.20
2018-07-03T05:50:15.564Z,79.50
2018-07-03T05:52:43.081Z,79.20
2018-07-03T05:55:10.664Z,79.50
2018-07-03T05:57:38.220Z,78.50
2018-07-03T06:00:07.173Z,79.00
2018-07-03T06:02:34.726Z,78.40
2018-07-03T06:05:02.768Z,78.20
2018-07-03T06:07:31.205Z,77.90
2018-07-03T06:09:59.117Z,77.60
2018-07-03T06:12:26.668Z,76.70
2018-07-03T06:14:54.554Z,76.40
2018-07-03T06:17:22.193Z,75.40
2018-07-03T06:19:49.829Z,75.30
2018-07-03T06:22:17.382Z,74.80
2018-07-03T06:24:44.941Z,74.30
2018-07-03T06:27:12.605Z,73.20
2018-07-03T06:29:41.653Z,73.50
2018-07-03T06:32:09.864Z,73.50
2018-07-03T06:34:37.380Z,72.90
2018-07-03T06:37:05.693Z,72.60
2018-07-03T06:39:33.542Z,70.60
2018-07-03T06:42:01.077Z,72.00
2018-07-03T06:44:29.141Z,72.20
2018-07-03T06:49:24.699Z,72.20
2018-07-03T06:51:52.240Z,70.20
2018-07-03T06:54:19.957Z,69.30
2018-07-03T06:56:47.950Z,69.60
2018-07-03T06:59:15.927Z,69.80
2018-07-03T07:01:44.188Z,67.60
2018-07-03T07:04:11.873Z,68.50
2018-07-03T07:06:39.432Z,67.90
2018-07-03T07:09:08.138Z,67.00
2018-07-03T07:11:36.053Z,66.80
2018-07-03T07:14:04.276Z,66.40
2018-07-03T07:16:32.509Z,67.20
2018-07-03T07:19:00.037Z,66.90
2018-07-03T07:21:27.592Z,67.50
2018-07-03T07:23:55.144Z,67.30
2018-07-03T07:26:23.725Z,66.40
2018-07-03T07:28:51.853Z,66.60
2018-07-03T07:33:47.053Z,66.00
2018-07-03T07:36:14.632Z,66.70
2018-07-03T07:38:42.906Z,66.50
2018-07-03T07:41:10.434Z,66.20
2018-07-03T07:43:38.284Z,65.50
2018-07-03T07:46:06.821Z,65.80
2018-07-03T07:48:34.792Z,62.40
2018-07-03T07:51:02.813Z,64.00
2018-07-03T07:55:59.406Z,63.80
2018-07-03T07:58:26.941Z,63.70
2018-07-03T08:00:54.844Z,63.70
2018-07-03T08:03:23.635Z,64.10
2018-07-03T08:05:51.232Z,63.80
2018-07-03T08:08:18.794Z,62.60
2018-07-03T08:10:46.364Z,61.20
2018-07-03T08:13:13.995Z,61.90
2018-07-03T08:15:42.245Z,62.10
2018-07-03T08:18:10.532Z,61.30
2018-07-03T08:23:06.583Z,61.20
2018-07-03T08:28:02.848Z,61.40
2018-07-03T08:30:30.788Z,61.80
2018-07-03T08:35:26.855Z,60.00
2018-07-03T08:37:54.893Z,59.90
2018-07-03T08:40:23.018Z,59.10
2018-07-03T08:45:19.464Z,59.20
2018-07-03T08:47:48.767Z,58.90
2018-07-03T08:50:16.853Z,58.90
2018-07-03T08:52:45.516Z,58.90
2018-07-03T08:55:14.533Z,59.40
2018-07-03T08:57:42.544Z,58.70
2018-07-03T09:00:10.893Z,58.80
2018-07-03T09:05:07.143Z,59.50
2018-07-03T09:07:35.226Z,59.30
2018-07-03T09:10:03.425Z,58.50
2018-07-03T09:12:31.420Z,57.80
2018-07-03T09:14:59.391Z,57.00
2018-07-03T09:17:28.552Z,56.00
2018-07-03T09:19:57.227Z,56.70
2018-07-03T09:22:25.530Z,56.40
2018-07-03T09:24:54.263Z,56.60
2018-07-03T09:27:22.345Z,55.50
2018-07-03T09:29:49.855Z,56.20
2018-07-03T09:32:18.152Z,56.10
2018-07-03T09:34:46.315Z,55.40
2018-07-03T09:37:14.358Z,55.40
2018-07-03T09:39:42.516Z,56.00
2018-07-03T09:42:10.645Z,54.80
2018-07-03T09:44:39.068Z,54.30
2018-07-03T09:47:07.207Z,55.10
2018-07-03T09:49:35.618Z,53.50
2018-07-03T09:52:03.204Z,55.00
2018-07-03T09:54:31.949Z,54.90
2018-07-03T09:56:59.484Z,55.20
2018-07-03T09:59:27.040Z,55.10
2018-07-03T10:01:54.991Z,54.60
2018-07-03T10:04:22.963Z,52.40
2018-07-03T10:06:51.227Z,52.70
2018-07-03T10:09:18.804Z,52.60
2018-07-03T10:11:46.479Z,52.10
2018-07-03T10:14:14.045Z,51.90
2018-07-03T10:16:41.720Z,51.00
2018-07-03T10:19:09.277Z,49.70
2018-07-03T10:21:37.300Z,49.50
2018-07-03T10:24:05.062Z,50.60
2018-07-03T10:26:32.620Z,51.00
2018-07-03T10:29:00.792Z,50.30
2018-07-03T10:31:28.420Z,50.80
2018-07-03T10:33:56.010Z,51.40
2018-07-03T10:36:23.610Z,50.30
2018-07-03T10:38:51.671Z,50.50
2018-07-03T10:41:19.880Z,49.10
2018-07-03T10:43:47.839Z,48.10
2018-07-03T10:48:44.531Z,45.90
2018-07-03T10:51:12.044Z,47.40
2018-07-03T10:53:40.766Z,48.70
2018-07-03T10:56:08.743Z,49.50
2018-07-03T10:58:36.322Z,47.60
2018-07-03T11:01:04.270Z,46.60
2018-07-03T11:05:59.637Z,45.40
2018-07-03T11:08:27.543Z,46.00
2018-07-03T11:10:55.112Z,47.20
2018-07-03T11:13:22.704Z,47.10
2018-07-03T11:18:18.517Z,46.20
2018-07-03T11:20:46.072Z,43.60
2018-07-03T11:23:13.759Z,46.10
2018-07-03T11:25:41.944Z,45.60
2018-07-03T11:28:10.260Z,44.50
2018-07-03T11:30:37.872Z,46.00
2018-07-03T11:33:05.792Z,43.00
2018-07-03T11:35:33.461Z,44.60
2018-07-03T11:38:02.440Z,44.50
2018-07-03T11:40:30.446Z,43.30
2018-07-03T11:42:58.624Z,43.50
2018-07-03T11:45:26.639Z,42.80
2018-07-03T11:47:55.368Z,41.20
2018-07-03T11:52:51.182Z,38.80
2018-07-03T11:55:19.383Z,38.80
2018-07-03T11:57:47.669Z,41.10
2018-07-03T12:02:44.349Z,39.60
2018-07-03T12:05:12.612Z,41.10
2018-07-03T12:10:08.864Z,39.50
2018-07-03T12:17:31.824Z,39.80
2018-07-03T12:19:59.445Z,38.00
2018-07-03T12:22:27.008Z,38.70
2018-07-03T12:24:55.176Z,39.00
2018-07-03T12:29:50.477Z,38.40
2018-07-03T12:32:18.621Z,36.90
2018-07-03T12:34:46.191Z,36.00
2018-07-03T12:37:14.316Z,37.70
2018-07-03T12:39:42.315Z,37.70
2018-07-03T12:42:10.397Z,37.80
2018-07-03T12:44:38.323Z,37.70
2018-07-03T12:47:06.883Z,38.10
2018-07-03T12:49:34.914Z,38.80
2018-07-03T12:54:30.527Z,39.40
2018-07-03T12:56:58.142Z,39.00
2018-07-03T12:59:25.692Z,39.20
2018-07-03T13:01:54.063Z,39.50
2018-07-03T13:06:49.199Z,38.80
2018-07-03T13:09:17.295Z,38.30
2018-07-03T13:11:45.311Z,37.10
2018-07-03T13:14:13.325Z,37.20
2018-07-03T13:16:40.878Z,37.10
2018-07-03T13:21:35.981Z,36.80
2018-07-03T13:24:03.946Z,36.50
2018-07-03T13:26:31.487Z,36.20
2018-07-03T13:28:59.539Z,36.70
2018-07-03T13:31:27.652Z,36.60
2018-07-03T13:33:55.195Z,37.10
2018-07-03T13:36:22.756Z,37.50
2018-07-03T13:38:50.631Z,37.80
2018-07-03T13:41:19.196Z,37.70
2018-07-03T13:43:47.660Z,38.10
2018-07-03T13:46:15.563Z,37.40
2018-07-03T13:48:43.468Z,39.00
2018-07-03T13:51:11.023Z,38.00
2018-07-03T13:53:39.719Z,38.00
2018-07-03T13:56:07.800Z,35.40
2018-07-03T13:58:35.340Z,36.10
2018-07-03T14:01:03.237Z,35.70
2018-07-03T14:03:30.822Z,34.60
2018-07-03T14:05:58.362Z,35.30
2018-07-03T14:08:26.892Z,34.20
2018-07-03T14:10:54.960Z,35.00
2018-07-03T14:13:22.490Z,35.10
2018-07-03T14:15:50.062Z,35.70
2018-07-03T14:18:22.197Z,34.80
2018-07-03T14:20:49.999Z,34.40
2018-07-03T14:23:17.620Z,35.40
2018-07-03T14:25:45.167Z,36.10
2018-07-03T14:30:40.692Z,36.40
2018-07-03T14:33:08.428Z,36.50
2018-07-03T14:35:35.985Z,36.50
2018-07-03T14:38:04.636Z,38.10
2018-07-03T14:40:32.813Z,38.60
2018-07-03T14:45:28.965Z,38.80
2018-07-03T14:50:24.301Z,38.50
2018-07-03T14:52:52.373Z,37.30
2018-07-03T15:00:15.599Z,35.10
2018-07-03T15:02:43.170Z,35.70
2018-07-03T15:05:10.711Z,35.60
2018-07-03T15:07:38.901Z,36.10
2018-07-03T15:10:06.808Z,35.60
2018-07-03T15:12:34.340Z,36.50
2018-07-03T15:15:01.866Z,36.60
2018-07-03T15:17:30.688Z,37.00
2018-07-03T15:22:26.783Z,40.70
2018-07-03T15:24:54.364Z,41.10
2018-07-03T15:27:21.988Z,41.10
2018-07-03T15:29:50.151Z,42.50
2018-07-03T15:32:17.772Z,42.10
2018-07-03T15:34:45.708Z,42.10
2018-07-03T15:37:13.904Z,42.00
2018-07-03T15:39:43.017Z,45.50
2018-07-03T15:42:11.141Z,46.00
2018-07-03T15:47:12.787Z,46.50
2018-07-03T15:49:41.036Z,44.30
2018-07-03T15:52:08.661Z,41.40
2018-07-03T15:54:36.236Z,43.90
2018-07-03T15:57:04.021Z,43.40
2018-07-03T15:59:31.572Z,43.20
2018-07-03T16:01:59.647Z,43.30
2018-07-03T16:05:09.415Z,42.00
2018-07-03T16:07:44.604Z,42.70
2018-07-03T16:10:12.456Z,44.40
2018-07-03T16:12:40.542Z,42.60
2018-07-03T16:17:36.611Z,40.90
2018-07-03T16:20:10.576Z,41.50
2018-07-03T16:22:38.850Z,41.30
2018-07-03T16:25:07.233Z,41.90
2018-07-03T16:27:34.913Z,41.70
2018-07-03T16:30:02.878Z,41.30
2018-07-03T16:32:31.131Z,41.20
2018-07-03T16:34:59.028Z,40.40
2018-07-03T16:37:27.340Z,38.80
2018-07-03T16:39:55.635Z,39.60
2018-07-03T16:42:23.536Z,41.40
2018-07-03T16:44:51.380Z,43.00
2018-07-03T16:47:19.292Z,43.90
2018-07-03T16:49:47.271Z,43.00
2018-07-03T16:52:14.905Z,44.40
2018-07-03T16:54:42.471Z,43.50
2018-07-03T16:57:10.040Z,43.40
2018-07-03T16:59:37.649Z,45.80
2018-07-03T17:02:05.729Z,47.30
2018-07-03T17:04:33.823Z,46.90
2018-07-03T17:07:02.538Z,47.60
2018-07-03T17:09:30.091Z,48.60
2018-07-03T17:11:57.776Z,47.70
2018-07-03T17:14:25.438Z,47.40
2018-07-03T17:16:53.012Z,47.40
2018-07-03T17:19:27.275Z,48.10
2018-07-03T17:21:55.236Z,48.90
2018-07-03T17:24:22.870Z,50.40
2018-07-03T17:26:50.614Z,51.80
2018-07-03T17:29:19.511Z,51.00
2018-07-03T17:31:47.049Z,48.70
2018-07-03T17:34:15.142Z,47.40
2018-07-03T17:36:43.116Z,48.90
2018-07-03T17:39:14.037Z,48.80
2018-07-03T17:41:54.199Z,48.80
2018-07-03T17:45:33.938Z,49.70
2018-07-03T17:48:04.020Z,49.40
2018-07-03T17:50:32.471Z,48.50
2018-07-03T17:53:00.559Z,48.90
2018-07-03T17:55:28.561Z,49.60
2018-07-03T18:00:25.540Z,51.80
2018-07-03T18:02:53.704Z,52.20
2018-07-03T18:05:21.860Z,53.30
2018-07-03T18:07:49.656Z,52.60
2018-07-03T18:10:17.228Z,52.50
2018-07-03T18:12:44.767Z,53.40
2018-07-03T18:15:12.608Z,53.70
2018-07-03T18:17:40.785Z,55.30
2018-07-03T18:20:08.316Z,55.00
2018-07-03T18:22:35.939Z,57.40
2018-07-03T18:25:03.550Z,56.50
2018-07-03T18:27:31.901Z,56.50
2018-07-03T18:29:59.647Z,57.10
2018-07-03T18:32:27.520Z,57.60
2018-07-03T18:34:56.276Z,56.70
2018-07-03T18:37:24.565Z,57.30
2018-07-03T18:39:53.033Z,57.50
2018-07-03T18:42:21.316Z,57.80
2018-07-03T18:44:49.416Z,58.20
2018-07-03T18:47:17.430Z,58.50
2018-07-03T18:49:44.941Z,59.60
2018-07-03T18:52:13.760Z,59.20
2018-07-03T18:54:41.349Z,61.60
2018-07-03T18:57:08.904Z,61.50
2018-07-03T18:59:37.434Z,62.60
2018-07-03T19:02:06.428Z,62.00
2018-07-03T19:04:34.047Z,60.50
2018-07-03T19:07:02.218Z,60.60
2018-07-03T19:09:30.095Z,61.10
2018-07-03T19:11:57.651Z,61.70
2018-07-03T19:14:25.200Z,61.90
2018-07-03T19:16:52.761Z,62.80
2018-07-03T19:19:20.908Z,62.50
2018-07-03T19:21:48.503Z,62.80
2018-07-03T19:24:16.114Z,64.90
2018-07-03T19:26:44.836Z,66.50
2018-07-03T19:29:12.540Z,63.50
2018-07-03T19:31:40.701Z,64.30
2018-07-03T19:34:08.324Z,65.10
2018-07-03T19:36:36.612Z,67.20
2018-07-03T19:39:08.188Z,66.80
2018-07-03T19:41:36.247Z,65.70
2018-07-03T19:44:04.343Z,68.10
2018-07-03T19:46:31.976Z,68.30
2018-07-03T19:49:00.493Z,69.40
2018-07-03T19:51:28.564Z,67.90
2018-07-03T19:53:56.516Z,68.00
2018-07-03T19:56:24.774Z,67.40
2018-07-03T19:58:52.666Z,68.20
2018-07-03T20:01:20.804Z,68.90
2018-07-03T20:03:48.358Z,68.30
2018-07-03T20:06:16.045Z,70.80
2018-07-03T20:08:45.070Z,69.80
2018-07-03T20:11:12.616Z,69.20
2018-07-03T20:13:40.164Z,69.60
2018-07-03T20:16:07.824Z,70.50
2018-07-03T20:18:35.380Z,69.10
2018-07-03T20:21:03.084Z,69.10
2018-07-03T20:23:31.411Z,69.40
2018-07-03T20:25:59.223Z,70.10
2018-07-03T20:28:27.203Z,72.60
2018-07-03T20:30:55.260Z,71.70
2018-07-03T20:33:22.783Z,71.30
2018-07-03T20:35:50.332Z,71.90
2018-07-03T20:38:18.223Z,73.00
2018-07-03T20:41:04.100Z,74.30
2018-07-03T20:43:33.692Z,73.60
2018-07-03T20:46:01.824Z,73.30
2018-07-03T20:48:30.060Z,73.20
2018-07-03T20:50:58.095Z,73.00
2018-07-03T20:53:26.323Z,73.90
2018-07-03T20:55:53.947Z,73.90
2018-07-03T20:58:21.835Z,74.20
2018-07-03T21:00:49.922Z,74.90
2018-07-03T21:03:18.767Z,74.20
2018-07-03T21:05:49.007Z,73.50
2018-07-03T21:08:17.249Z,75.10
2018-07-03T21:10:45.068Z,75.40
2018-07-03T21:13:12.612Z,77.40
2018-07-03T21:15:40.281Z,76.40
2018-07-03T21:18:07.857Z,78.40
2018-07-03T21:20:35.873Z,76.70
2018-07-03T21:23:04.068Z,76.90
2018-07-03T21:30:27.215Z,78.40
2018-07-03T21:32:54.957Z,77.90
2018-07-03T21:35:22.519Z,76.90
2018-07-03T21:37:51.087Z,77.20
2018-07-03T21:40:19.375Z,77.40
2018-07-03T21:42:47.272Z,77.30
2018-07-03T21:45:15.079Z,77.80
2018-07-03T21:47:43.096Z,77.90
2018-07-03T21:50:10.636Z,77.80
2018-07-03T21:52:39.527Z,79.00
2018-07-03T21:55:07.084Z,78.70
2018-07-03T21:57:34.983Z,78.60
2018-07-03T22:00:03.159Z,78.80
2018-07-03T22:02:31.196Z,78.40
2018-07-03T22:04:58.732Z,78.10
2018-07-03T22:07:26.252Z,78.90
2018-07-03T22:09:53.904Z,78.80
2018-07-03T22:12:21.423Z,77.40
2018-07-03T22:14:49.037Z,77.70
2018-07-03T22:17:17.649Z,78.50
2018-07-03T22:19:45.352Z,78.50
2018-07-03T22:22:13.374Z,79.10
2018-07-03T22:24:41.430Z,78.40
2018-07-03T22:27:09.007Z,79.50
2018-07-03T22:29:36.545Z,79.30
2018-07-03T22:32:04.167Z,79.10
2018-07-03T22:34:31.823Z,81.70
2018-07-03T22:36:59.421Z,83.60
2018-07-03T22:39:27.862Z,81.40
2018-07-03T22:41:55.767Z,81.60
2018-07-03T22:44:23.647Z,81.00
2018-07-03T22:46:51.692Z,80.30
2018-07-03T22:49:19.804Z,80.30
2018-07-03T22:51:47.332Z,80.50
2018-07-03T22:54:14.887Z,81.30
2018-07-03T22:56:42.439Z,81.70
2018-07-03T22:59:09.960Z,82.30
2018-07-03T23:01:37.836Z,82.00
2018-07-03T23:04:05.880Z,82.10
2018-07-03T23:06:33.954Z,83.00
2018-07-03T23:09:01.500Z,81.10
2018-07-03T23:11:29.054Z,80.50
2018-07-03T23:13:57.164Z,82.10
2018-07-03T23:16:25.014Z,82.90
2018-07-03T23:21:20.372Z,82.40
2018-07-03T23:23:48.447Z,82.20
2018-07-03T23:26:15.971Z,84.30
2018-07-03T23:28:43.513Z,83.30
2018-07-03T23:31:11.046Z,83.40
2018-07-03T23:33:38.752Z,83.30
2018-07-03T23:36:06.333Z,84.80
2018-07-03T23:38:34.922Z,84.40
2018-07-03T23:41:02.837Z,84.90
2018-07-03T23:43:30.796Z,83.50
2018-07-03T23:48:38.812Z,82.50
2018-07-03T23:51:18.923Z,83.80
2018-07-03T23:53:58.159Z,85.20
2018-07-03T23:56:38.338Z,84.30
2018-07-03T23:59:18.367Z,84.10
